Aérodrome :
LOGIN :

S'inscrire | Disclaimer

   EN    FR    IT 

 










Légende :    VFR   VFR Marginal   IFR   IFR Intensif   IFR Très Intensif
Visi : 
Plafond : 
>= 8 km
>= 3000ft
5 à 8 km
1000 à 3000 ft
1500m à 5 km
500 à 1000 ft
800 à 1500m
200 à 500 ft
< 800m
< 200 ft
Symboles :   Orages  Brouillard  Fortes neiges  Fortes précipitations  Vent > 20 kt
SIGMETs :   Divers  Orages  Givrage  Turbulence  Onde Orograph.  Cendres Volcan.






- Altitude de l'aérodrome : 72 ft
- Code IATA : UDE


EHVK - Volkel Airbase

DERNIER METAR :
  • 030125Z AUTO 25006KT 9999 FEW043 OVC068 08/05 Q1011 BLU

METARs EXPIRÉS :
  • 030055Z AUTO 24007KT 9999 BKN055 BKN060 OVC068 08/05 Q1011 BLU
  • 030011Z AUTO 25007KT 9999 FEW023 BKN049 OVC053 08/05 Q1011 BLU
  • 022345Z AUTO 25008KT 220V280 9999 SCT023 BKN044 OVC050 08/05 Q1011 WHT
  • 022329Z AUTO 25009KT 220V280 9999 -UP FEW022 SCT038 BKN059 08/05 Q1011 BLU
  • 022325Z AUTO 25009KT 9999 SCT021 BKN024 OVC066 08/04 Q1011 WHT
  • 022256Z AUTO 25009KT 230V290 9999 SCT024 BKN027 OVC034 08/04 Q1011 WHT
  • 022255Z AUTO 25010KT 9999 SCT027 BKN030 OVC035 08/04 Q1011 BLU

TAF TAF EHVK
Valide du 03 à 01h jusqu'au 03 à 13h UTC


030013Z 0301/0313 25007KT 9999 FEW022 SCT035 BKN048
PROB30
TEMPO 0301/0312 6000 -SHRA FEW015 FEW020CB BKN028
BECMG 0309/0311 28010G22KT



MET'MAP, la Météo Aéronautique d'un coup d'oeil ! - Copyright ORBIFLY Décembre 2007 - Disclaimer

ORBIFLY MET'MAP TEAM :

Programmation & Développement : Alexandra Zaïnal
Sur une idée originale de : Baudouin d'Aumeries
Assistance à la programmation : Marc-Olivier Méhu
Soutien technique & logistique : Manuel Goepfert

Contact : metmap@orbifly.com




SOURCES & CREDITS :

   NOAA